Time;durP1;ratioP1;P1;durP2;ratioP2;P2;SDS_P1;SDS_P2;PMS_P1;PMS_P2;Temp;Humidity;BMP_temperature;BMP_pressure;BME280_temperature;BME280_humidity;BME280_pressure;Samples;Min_cycle;Max_cycle;Signal;HPM_P1;HPM_P2
2022/01/10 11:36:13;;;;;;;54.03;27.03;;;4.80;99.90;;;;;;4899137;22;1252548;-78
2022/01/10 11:38:40;;;;;;;46.58;25.52;;;4.90;99.90;;;;;;6220126;23;20103;-77
2022/01/10 11:41:12;;;;;;;44.67;24.35;;;5.00;99.90;;;;;;6220493;23;20043;-78
2022/01/10 11:43:44;;;;;;;47.67;25.85;;;5.00;99.90;;;;;;6220326;23;20023;-79
2022/01/10 11:46:28;;;;;;;45.25;25.23;;;5.10;99.90;;;;;;6220227;23;20394;-79
2022/01/10 11:49:02;;;;;;;43.17;25.13;;;5.20;99.90;;;;;;6247565;23;20020;-78
2022/01/10 11:51:51;;;;;;;41.03;25.15;;;5.20;99.90;;;;;;6247463;23;20071;-78
2022/01/10 11:54:23;;;;;;;48.10;25.02;;;5.30;99.90;;;;;;6200795;23;20058;-78
2022/01/10 11:56:51;;;;;;;44.78;25.75;;;5.30;99.90;;;;;;6220393;23;20020;-79
2022/01/10 11:59:28;;;;;;;43.33;24.88;;;5.40;99.90;;;;;;6219618;23;20016;-78
2022/01/10 12:01:59;;;;;;;39.70;23.92;;;5.40;99.90;;;;;;6220113;23;20435;-77
2022/01/10 12:04:27;;;;;;;43.45;25.48;;;5.50;99.90;;;;;;6220240;23;20044;-77
2022/01/10 12:06:53;;;;;;;46.25;27.65;;;5.60;99.90;;;;;;6219166;23;20339;-79
2022/01/10 12:09:20;;;;;;;41.30;24.77;;;5.70;99.90;;;;;;6247313;23;20012;-77
2022/01/10 12:11:48;;;;;;;40.85;23.63;;;5.70;99.90;;;;;;6246858;23;20052;-80
2022/01/10 12:14:14;;;;;;;44.78;25.17;;;5.80;99.90;;;;;;6247055;23;20023;-82
2022/01/10 12:16:40;;;;;;;40.10;24.90;;;5.80;99.90;;;;;;6219408;23;20023;-83
2022/01/10 12:19:07;;;;;;;43.67;25.10;;;5.80;99.90;;;;;;6220026;23;20020;-82
2022/01/10 12:21:33;;;;;;;43.00;26.15;;;5.80;99.90;;;;;;6220004;23;20340;-82
2022/01/10 12:23:59;;;;;;;43.97;24.85;;;5.90;99.90;;;;;;6219910;23;20020;-81
2022/01/10 12:26:26;;;;;;;46.15;24.58;;;6.00;99.90;;;;;;6246688;23;20017;-82
2022/01/10 12:28:54;;;;;;;36.65;21.80;;;6.00;99.90;;;;;;6219803;23;20095;-82
2022/01/10 12:31:22;;;;;;;36.20;21.67;;;5.90;99.90;;;;;;6219710;23;20012;-82
2022/01/10 12:33:49;;;;;;;37.22;22.75;;;5.90;99.90;;;;;;6219628;23;20023;-82
2022/01/10 12:36:16;;;;;;;37.15;23.13;;;5.90;99.90;;;;;;6219692;23;20016;-82
2022/01/10 12:38:43;;;;;;;33.72;22.65;;;6.00;99.90;;;;;;6219564;23;20095;-82
2022/01/10 12:41:09;;;;;;;37.17;24.38;;;5.90;99.90;;;;;;6219692;23;20020;-82
2022/01/10 12:43:35;;;;;;;52.72;28.58;;;6.00;99.90;;;;;;6238576;23;20020;-82
2022/01/10 12:46:00;;;;;;;38.40;25.20;;;6.00;99.90;;;;;;6219677;23;20435;-82
2022/01/10 12:48:27;;;;;;;36.83;22.90;;;6.00;99.90;;;;;;6218727;23;20380;-84
2022/01/10 12:50:54;;;;;;;34.35;23.65;;;6.10;99.90;;;;;;6219533;23;20012;-85
2022/01/10 12:53:20;;;;;;;43.60;25.83;;;6.10;99.90;;;;;;6219011;23;20024;-83
2022/01/10 12:55:46;;;;;;;37.78;25.02;;;6.10;99.90;;;;;;6219308;23;20012;-84
2022/01/10 12:58:11;;;;;;;39.85;23.38;;;6.10;99.90;;;;;;6219706;23;20024;-83
2022/01/10 13:00:37;;;;;;;41.55;23.17;;;6.20;99.90;;;;;;6219022;23;20008;-83
2022/01/10 13:03:04;;;;;;;41.78;24.00;;;6.20;99.90;;;;;;6219343;23;20012;-83
2022/01/10 13:05:31;;;;;;;40.72;24.38;;;6.20;99.90;;;;;;6219161;23;20047;-83
2022/01/10 13:07:58;;;;;;;37.20;23.00;;;6.20;99.90;;;;;;6219068;23;20024;-81
2022/01/10 13:10:31;;;;;;;40.05;22.33;;;6.20;99.90;;;;;;6216990;23;20016;-81
2022/01/10 13:12:59;;;;;;;38.13;22.02;;;6.20;99.90;;;;;;6217490;23;20386;-81
2022/01/10 13:15:33;;;;;;;41.67;24.27;;;6.20;99.90;;;;;;6218807;23;20061;-80
2022/01/10 13:18:00;;;;;;;36.80;22.35;;;6.20;99.90;;;;;;6219491;23;20019;-79
2022/01/10 13:20:33;;;;;;;31.48;22.30;;;6.20;99.90;;;;;;6219428;23;20016;-81
2022/01/10 13:23:04;;;;;;;39.75;25.25;;;6.20;99.90;;;;;;6219495;23;20016;-81
2022/01/10 13:25:45;;;;;;;34.70;22.83;;;6.20;99.90;;;;;;6219533;23;20103;-81
2022/01/10 13:28:12;;;;;;;38.25;23.38;;;6.20;99.90;;;;;;6219495;23;20096;-82
2022/01/10 13:30:48;;;;;;;40.22;25.17;;;6.20;99.90;;;;;;6219439;23;20023;-80
2022/01/10 13:33:14;;;;;;;43.63;25.83;;;6.20;99.90;;;;;;6246437;23;20044;-80
2022/01/10 13:35:40;;;;;;;39.10;25.40;;;6.20;99.90;;;;;;6219439;23;20027;-81
2022/01/10 13:38:14;;;;;;;41.53;26.42;;;6.20;99.90;;;;;;6219303;23;20016;-81
2022/01/10 13:40:50;;;;;;;40.70;25.88;;;6.20;99.90;;;;;;6219487;23;20513;-79
2022/01/10 13:43:20;;;;;;;43.22;27.13;;;6.20;99.90;;;;;;6219430;23;20478;-79
2022/01/10 13:45:53;;;;;;;41.80;25.13;;;6.20;99.90;;;;;;6219269;23;20023;-79
2022/01/10 13:48:21;;;;;;;;;;;6.20;99.90;;;;;;6219909;23;20012;-80
2022/01/10 13:50:59;;;;;;;42.92;25.25;;;6.20;99.90;;;;;;6246185;23;19919;-79
2022/01/10 13:53:29;;;;;;;38.47;25.58;;;6.20;99.90;;;;;;6219091;23;20060;-80
2022/01/10 13:56:10;;;;;;;40.22;25.65;;;6.10;99.90;;;;;;6246388;23;20024;-80
2022/01/10 13:58:40;;;;;;;46.10;26.20;;;6.20;99.90;;;;;;6219494;23;20044;-79
2022/01/10 14:01:06;;;;;;;42.40;25.52;;;6.20;99.90;;;;;;6246213;23;20074;-80
2022/01/10 14:03:34;;;;;;;39.28;25.58;;;6.20;99.90;;;;;;6246468;23;20019;-83
2022/01/10 14:06:22;;;;;;;38.90;24.77;;;6.10;99.90;;;;;;6219277;23;20462;-83
2022/01/10 14:08:52;;;;;;;41.83;24.15;;;6.10;99.90;;;;;;6219271;23;20329;-82
2022/01/10 14:11:19;;;;;;;36.75;24.23;;;6.00;99.90;;;;;;6219206;23;20024;-82
2022/01/10 14:13:48;;;;;;;42.58;24.52;;;6.00;99.90;;;;;;6245979;23;20024;-82
2022/01/10 14:16:16;;;;;;;46.78;26.83;;;6.00;99.90;;;;;;6218807;23;20099;-84
2022/01/10 14:18:41;;;;;;;40.97;25.35;;;5.90;99.90;;;;;;6218344;23;20020;-82
2022/01/10 14:21:08;;;;;;;38.25;24.45;;;6.00;99.90;;;;;;6218557;23;20394;-80
2022/01/10 14:23:39;;;;;;;34.58;23.52;;;5.90;99.90;;;;;;6218781;23;20020;-81
2022/01/10 14:26:06;;;;;;;42.65;26.75;;;5.80;99.90;;;;;;6246340;23;20023;-81
2022/01/10 14:28:32;;;;;;;39.88;26.15;;;5.80;99.90;;;;;;6219049;23;20063;-80
2022/01/10 14:30:58;;;;;;;41.35;25.55;;;5.80;99.90;;;;;;6247884;23;20016;-81
2022/01/10 14:33:25;;;;;;;39.15;23.73;;;5.80;99.90;;;;;;6221024;23;20043;-81
2022/01/10 14:35:53;;;;;;;35.95;23.08;;;5.70;99.90;;;;;;6220716;23;20058;-81
2022/01/10 14:38:18;;;;;;;37.58;22.88;;;5.70;99.90;;;;;;6220925;23;20051;-81
2022/01/10 14:40:44;;;;;;;42.88;23.35;;;5.60;99.90;;;;;;6220950;23;20016;-81
2022/01/10 14:43:11;;;;;;;37.45;23.63;;;5.60;99.90;;;;;;6220957;23;20023;-81
2022/01/10 14:45:38;;;;;;;38.65;22.15;;;5.60;99.90;;;;;;6220970;23;20020;-81
2022/01/10 14:48:05;;;;;;;35.80;22.85;;;5.50;99.90;;;;;;6220912;23;20054;-81
2022/01/10 14:50:31;;;;;;;34.85;21.77;;;5.50;99.90;;;;;;6247672;23;20340;-81
2022/01/10 14:52:56;;;;;;;39.65;22.92;;;5.40;99.90;;;;;;6220707;23;20008;-81
2022/01/10 14:55:22;;;;;;;37.63;23.48;;;5.40;99.90;;;;;;6221264;23;20016;-83
2022/01/10 14:57:47;;;;;;;31.45;20.75;;;5.30;99.90;;;;;;6220913;23;20309;-82
2022/01/10 15:00:14;;;;;;;39.05;24.80;;;5.30;99.90;;;;;;6220705;23;20539;-82
2022/01/10 15:02:39;;;;;;;48.13;29.95;;;5.30;99.90;;;;;;6220842;23;20146;-82
2022/01/10 15:05:06;;;;;;;41.85;26.73;;;5.20;99.90;;;;;;6220669;23;20063;-82
2022/01/10 15:07:32;;;;;;;38.85;22.55;;;5.20;99.90;;;;;;6220791;23;20071;-82
2022/01/10 15:09:57;;;;;;;36.08;22.10;;;5.10;99.90;;;;;;6220714;23;20023;-82
2022/01/10 15:12:23;;;;;;;30.05;20.50;;;5.10;99.90;;;;;;6220751;23;20063;-83
2022/01/10 15:14:49;;;;;;;33.33;19.98;;;5.00;99.90;;;;;;6220704;23;20023;-82
2022/01/10 15:17:15;;;;;;;33.97;21.33;;;5.00;99.90;;;;;;6220727;23;20047;-82
2022/01/10 15:19:40;;;;;;;30.75;19.40;;;4.90;99.90;;;;;;6220545;23;20020;-82
2022/01/10 15:22:06;;;;;;;35.97;20.35;;;4.90;99.90;;;;;;6221070;23;20008;-82
2022/01/10 15:24:32;;;;;;;60.10;21.83;;;4.90;99.90;;;;;;6247497;23;20023;-82
2022/01/10 15:26:58;;;;;;;35.40;20.30;;;4.80;99.90;;;;;;6220638;23;20099;-82
2022/01/10 15:29:24;;;;;;;31.83;19.50;;;4.70;99.90;;;;;;6247435;23;20390;-82
2022/01/10 15:31:50;;;;;;;61.30;35.47;;;4.70;99.90;;;;;;6220513;23;20090;-82
2022/01/10 15:34:15;;;;;;;77.28;45.00;;;4.60;99.90;;;;;;6220435;23;20420;-82
2022/01/10 15:36:41;;;;;;;52.30;31.52;;;4.60;99.90;;;;;;6220367;23;20020;-82
2022/01/10 15:39:07;;;;;;;43.65;27.58;;;4.50;99.90;;;;;;6220340;23;20440;-81
2022/01/10 15:41:32;;;;;;;42.20;25.75;;;4.50;99.90;;;;;;6220416;23;20023;-83
2022/01/10 15:43:59;;;;;;;47.35;27.63;;;4.40;99.90;;;;;;6220351;23;20016;-83
2022/01/10 15:46:26;;;;;;;35.95;23.80;;;4.30;99.90;;;;;;6220423;23;20062;-83
2022/01/10 15:48:52;;;;;;;32.58;21.35;;;4.30;99.90;;;;;;6220240;23;20023;-83
2022/01/10 15:51:18;;;;;;;31.48;19.67;;;4.20;99.90;;;;;;6246711;23;20028;-82
2022/01/10 15:53:44;;;;;;;35.30;23.02;;;4.10;99.90;;;;;;6247148;23;20340;-82
2022/01/10 15:56:09;;;;;;;45.60;29.55;;;4.10;99.90;;;;;;6220064;23;20016;-81
2022/01/10 15:58:37;;;;;;;39.60;25.40;;;4.00;99.90;;;;;;6247518;23;20020;-81
2022/01/10 16:01:06;;;;;;;42.40;24.15;;;4.00;99.90;;;;;;6220257;23;20331;-79
2022/01/10 16:03:32;;;;;;;36.70;22.05;;;3.90;99.90;;;;;;6220221;23;20344;-79
2022/01/10 16:05:59;;;;;;;31.00;20.67;;;3.90;99.90;;;;;;6220275;23;20439;-79
2022/01/10 16:08:24;;;;;;;27.95;19.20;;;3.80;99.90;;;;;;6220276;23;20012;-79
2022/01/10 16:10:50;;;;;;;29.02;19.25;;;3.70;99.90;;;;;;6220252;23;20394;-78
2022/01/10 16:13:26;;;;;;;27.00;18.25;;;3.60;99.90;;;;;;6247324;23;20047;-79
2022/01/10 16:15:53;;;;;;;37.20;21.73;;;3.60;99.90;;;;;;6220173;23;20039;-78
2022/01/10 16:18:18;;;;;;;61.38;39.60;;;3.50;99.90;;;;;;6220182;23;20024;-79
2022/01/10 16:20:46;;;;;;;82.55;45.08;;;3.50;99.90;;;;;;6220280;23;20370;-79
2022/01/10 16:23:12;;;;;;;88.15;47.95;;;3.50;99.90;;;;;;6220087;23;20340;-79
2022/01/10 16:25:38;;;;;;;67.10;37.55;;;3.50;99.90;;;;;;6220136;23;20078;-79
2022/01/10 16:28:04;;;;;;;63.05;37.13;;;3.40;99.90;;;;;;6220077;23;20020;-79
2022/01/10 16:30:30;;;;;;;71.07;39.95;;;3.30;99.90;;;;;;6220046;23;20020;-79
2022/01/10 16:32:56;;;;;;;56.92;32.03;;;3.30;99.90;;;;;;6219918;23;20095;-79
2022/01/10 16:35:22;;;;;;;47.65;29.73;;;3.30;99.90;;;;;;6219969;23;20024;-79
2022/01/10 16:37:48;;;;;;;46.83;28.40;;;3.20;99.90;;;;;;6214686;23;20016;-79
2022/01/10 16:40:15;;;;;;;47.35;30.60;;;3.20;99.90;;;;;;6214914;23;20024;-79
2022/01/10 16:42:41;;;;;;;43.90;27.60;;;3.20;99.90;;;;;;6216615;23;20063;-79
2022/01/10 16:45:08;;;;;;;35.97;23.85;;;3.10;99.90;;;;;;6214887;23;20013;-78
2022/01/10 16:47:34;;;;;;;39.55;25.27;;;3.10;99.90;;;;;;6214899;23;20436;-79
2022/01/10 16:50:00;;;;;;;36.53;23.70;;;3.10;99.90;;;;;;6214872;23;20099;-79
2022/01/10 16:52:26;;;;;;;35.90;22.55;;;3.10;99.90;;;;;;6214530;23;20051;-79
2022/01/10 16:54:52;;;;;;;38.40;22.75;;;3.00;99.90;;;;;;6215083;23;20099;-79
2022/01/10 16:57:18;;;;;;;35.75;22.20;;;3.00;99.90;;;;;;6214835;23;20048;-79
2022/01/10 16:59:45;;;;;;;33.92;22.35;;;2.90;99.90;;;;;;6216592;23;20036;-79
2022/01/10 17:02:14;;;;;;;36.83;20.75;;;2.90;99.90;;;;;;6216688;23;20075;-79
2022/01/10 17:04:41;;;;;;;36.40;22.77;;;2.90;99.90;;;;;;6214695;23;20052;-79
2022/01/10 17:07:07;;;;;;;35.28;21.13;;;2.90;99.90;;;;;;6214721;23;20021;-79
2022/01/10 17:09:34;;;;;;;37.72;22.42;;;2.80;99.90;;;;;;6214705;23;20016;-79
2022/01/10 17:12:00;;;;;;;55.58;36.13;;;2.80;99.90;;;;;;6216466;23;20016;-79
2022/01/10 17:14:27;;;;;;;54.00;35.72;;;2.70;99.90;;;;;;6214463;23;20024;-79
2022/01/10 17:16:53;;;;;;;54.97;30.25;;;2.70;99.90;;;;;;6214591;23;20016;-79
2022/01/10 17:19:19;;;;;;;42.47;28.38;;;2.70;99.90;;;;;;6216454;23;20016;-79
2022/01/10 17:21:44;;;;;;;38.67;24.77;;;2.70;99.90;;;;;;6216521;23;20091;-79
2022/01/10 17:24:11;;;;;;;38.05;24.75;;;2.70;99.90;;;;;;6214615;23;20107;-79
2022/01/10 17:26:37;;;;;;;37.22;22.70;;;2.60;99.90;;;;;;6214988;23;20016;-84
2022/01/10 17:29:04;;;;;;;31.65;20.95;;;2.60;99.90;;;;;;6214553;23;20025;-79
2022/01/10 17:31:31;;;;;;;32.08;20.60;;;2.60;99.90;;;;;;6216037;23;20143;-79
2022/01/10 17:33:57;;;;;;;36.38;22.88;;;2.50;99.90;;;;;;6216319;23;20052;-79
2022/01/10 17:36:23;;;;;;;39.30;25.20;;;2.50;99.90;;;;;;6216303;23;20017;-79
2022/01/10 17:38:50;;;;;;;45.03;26.80;;;2.50;99.90;;;;;;6219337;23;20082;-79
2022/01/10 17:41:16;;;;;;;41.58;28.05;;;2.40;99.90;;;;;;6218155;23;20043;-84
2022/01/10 17:43:41;;;;;;;39.78;27.25;;;2.40;99.90;;;;;;6219502;23;20016;-82
2022/01/10 17:46:07;;;;;;;39.30;24.77;;;2.40;99.90;;;;;;6246333;23;20016;-81
2022/01/10 17:48:33;;;;;;;33.17;22.85;;;2.40;99.90;;;;;;6219438;23;20339;-81
2022/01/10 17:51:04;;;;;;;37.10;23.65;;;2.30;99.90;;;;;;6219559;23;20020;-81
2022/01/10 17:53:31;;;;;;;37.85;24.98;;;2.40;99.90;;;;;;6246727;23;20121;-81
2022/01/10 17:55:57;;;;;;;44.88;22.75;;;2.30;99.90;;;;;;6219459;23;20012;-81
2022/01/10 17:58:23;;;;;;;38.70;23.20;;;2.30;99.90;;;;;;6219471;23;20103;-81
2022/01/10 18:00:48;;;;;;;43.80;23.20;;;2.30;99.90;;;;;;6219435;23;20424;-80
2022/01/10 18:03:14;;;;;;;40.53;23.17;;;2.30;99.90;;;;;;6219514;23;20051;-81
2022/01/10 18:05:40;;;;;;;38.03;23.83;;;2.30;99.90;;;;;;6221165;23;20019;-82
2022/01/10 18:08:07;;;;;;;43.55;25.48;;;2.20;99.90;;;;;;6221407;23;20016;-82
2022/01/10 18:10:32;;;;;;;40.85;24.20;;;2.20;99.90;;;;;;6221349;23;20086;-82
2022/01/10 18:12:58;;;;;;;40.75;23.63;;;2.20;99.90;;;;;;6221316;23;20383;-82
2022/01/10 18:15:24;;;;;;;39.58;23.95;;;2.20;99.90;;;;;;6221461;23;20466;-81
2022/01/10 18:17:50;;;;;;;39.30;23.15;;;2.10;99.90;;;;;;6248190;23;20012;-82
2022/01/10 18:20:18;;;;;;;39.78;23.90;;;2.10;99.90;;;;;;6221289;23;20012;-82
2022/01/10 18:22:44;;;;;;;42.65;24.17;;;2.20;99.90;;;;;;6221177;23;20020;-82
2022/01/10 18:25:13;;;;;;;40.83;23.67;;;2.10;99.90;;;;;;6221234;23;20012;-82
2022/01/10 18:27:41;;;;;;;41.42;24.85;;;2.10;99.90;;;;;;6221274;23;20517;-81
2022/01/10 18:30:09;;;;;;;42.75;26.77;;;2.10;99.90;;;;;;6221112;23;20443;-81
2022/01/10 18:32:35;;;;;;;55.28;31.58;;;2.10;99.90;;;;;;6220892;23;20020;-82
2022/01/10 18:35:03;;;;;;;57.22;33.40;;;2.10;99.90;;;;;;6221163;23;20020;-82
2022/01/10 18:37:28;;;;;;;61.00;34.30;;;2.10;99.90;;;;;;6247790;23;20020;-83
2022/01/10 18:39:54;;;;;;;69.55;37.78;;;2.10;99.90;;;;;;6222281;23;20020;-82
2022/01/10 18:42:20;;;;;;;50.17;30.80;;;2.10;99.90;;;;;;6221075;23;20440;-82
2022/01/10 18:44:46;;;;;;;86.68;44.00;;;2.10;99.90;;;;;;6221461;23;20016;-81
2022/01/10 18:47:12;;;;;;;59.63;32.15;;;2.10;99.90;;;;;;6221472;23;20043;-81
2022/01/10 18:49:38;;;;;;;123.93;59.03;;;2.10;99.90;;;;;;6221037;23;20016;-81
2022/01/10 18:52:06;;;;;;;109.93;53.28;;;2.10;99.90;;;;;;6220963;23;20063;-81
2022/01/10 18:54:33;;;;;;;165.88;73.93;;;2.00;99.90;;;;;;6220837;23;20340;-83
2022/01/10 18:56:59;;;;;;;183.57;74.05;;;2.00;99.90;;;;;;6221034;23;20012;-82
2022/01/10 18:59:25;;;;;;;102.38;49.60;;;1.90;99.90;;;;;;6220991;23;20455;-82
2022/01/10 19:01:51;;;;;;;91.28;51.15;;;1.90;99.90;;;;;;6220845;23;20018;-81
2022/01/10 19:04:20;;;;;;;83.25;46.33;;;1.90;99.90;;;;;;6221032;23;20051;-81
2022/01/10 19:06:47;;;;;;;62.45;38.55;;;1.90;99.90;;;;;;6221043;23;20074;-81
2022/01/10 19:09:14;;;;;;;54.92;32.40;;;1.90;99.90;;;;;;6220878;23;20012;-81
2022/01/10 19:11:40;;;;;;;48.60;30.00;;;1.90;99.90;;;;;;6220860;23;20054;-83
2022/01/10 19:14:06;;;;;;;48.03;29.00;;;1.80;99.90;;;;;;6220811;23;20023;-83
2022/01/10 19:16:33;;;;;;;51.28;30.08;;;1.80;99.90;;;;;;6247748;23;20035;-83
2022/01/10 19:18:59;;;;;;;48.60;29.05;;;1.80;99.90;;;;;;6221219;23;20024;-83
2022/01/10 19:21:24;;;;;;;44.35;29.30;;;1.80;99.90;;;;;;6220616;23;20020;-82
2022/01/10 19:23:53;;;;;;;65.97;39.25;;;1.80;99.90;;;;;;6220695;23;20023;-83
2022/01/10 19:26:19;;;;;;;76.88;44.35;;;1.70;99.90;;;;;;6247496;23;20067;-83
2022/01/10 19:28:44;;;;;;;65.20;40.38;;;1.70;99.90;;;;;;6220794;23;20055;-83
2022/01/10 19:31:11;;;;;;;67.82;38.63;;;1.70;99.90;;;;;;6220787;23;20340;-83
2022/01/10 19:33:37;;;;;;;59.50;36.88;;;1.70;99.90;;;;;;6220471;23;20017;-83
2022/01/10 19:36:03;;;;;;;51.95;32.65;;;1.60;99.90;;;;;;6220725;23;20020;-83
2022/01/10 19:38:29;;;;;;;48.53;32.35;;;1.60;99.90;;;;;;6220341;23;20016;-82
2022/01/10 19:40:55;;;;;;;69.82;38.67;;;1.60;99.90;;;;;;6220580;23;20071;-82
2022/01/10 19:43:20;;;;;;;67.35;37.42;;;1.60;99.90;;;;;;6220635;23;20020;-82
2022/01/10 19:45:46;;;;;;;78.88;41.78;;;1.60;99.90;;;;;;6220615;23;20017;-82
2022/01/10 19:48:12;;;;;;;100.43;51.35;;;1.60;99.90;;;;;;6220553;23;20099;-82
2022/01/10 19:50:37;;;;;;;77.32;45.45;;;1.60;99.90;;;;;;6220570;23;20012;-82
2022/01/10 19:53:05;;;;;;;64.80;39.70;;;1.70;99.90;;;;;;6220314;23;20023;-81
2022/01/10 19:55:30;;;;;;;68.13;37.83;;;1.60;99.90;;;;;;6220455;23;20131;-82
2022/01/10 19:57:56;;;;;;;61.28;34.88;;;1.60;99.90;;;;;;6247581;23;20035;-81
2022/01/10 20:00:23;;;;;;;58.97;34.95;;;1.60;99.90;;;;;;6247511;23;20020;-81
2022/01/10 20:02:50;;;;;;;60.75;36.13;;;1.70;99.90;;;;;;6220361;23;20020;-81
2022/01/10 20:05:17;;;;;;;63.45;36.90;;;1.70;99.90;;;;;;6220284;23;20012;-81
2022/01/10 20:07:43;;;;;;;78.03;38.78;;;1.70;99.90;;;;;;6220337;23;20026;-81
2022/01/10 20:10:09;;;;;;;67.35;39.13;;;1.80;99.90;;;;;;6220359;23;20016;-82
2022/01/10 20:12:35;;;;;;;69.65;40.13;;;1.80;99.90;;;;;;6220076;23;20023;-81
2022/01/10 20:15:01;;;;;;;88.82;45.78;;;1.80;99.90;;;;;;6220218;23;20020;-82
2022/01/10 20:17:26;;;;;;;74.47;39.80;;;1.80;99.90;;;;;;6220274;23;20050;-82
2022/01/10 20:19:52;;;;;;;68.65;38.17;;;1.80;99.90;;;;;;6220226;23;20027;-82
2022/01/10 20:22:17;;;;;;;64.22;38.67;;;1.80;99.90;;;;;;6220187;23;20044;-85
2022/01/10 20:24:43;;;;;;;66.80;36.15;;;1.80;99.90;;;;;;6247505;23;20336;-83
2022/01/10 20:27:09;;;;;;;64.25;36.13;;;1.90;99.90;;;;;;6219707;23;20020;-84
2022/01/10 20:29:35;;;;;;;64.90;38.63;;;1.90;99.90;;;;;;6220179;23;20067;-83
2022/01/10 20:32:02;;;;;;;76.63;40.30;;;2.00;99.90;;;;;;6220522;23;20095;-82
2022/01/10 20:34:27;;;;;;;65.47;39.28;;;1.90;99.90;;;;;;6220003;23;20054;-82
2022/01/10 20:36:53;;;;;;;73.72;38.53;;;1.90;99.90;;;;;;6219885;23;20012;-83
2022/01/10 20:39:19;;;;;;;64.70;36.72;;;1.90;99.90;;;;;;6219704;23;20471;-81
2022/01/10 20:41:45;;;;;;;64.82;37.97;;;1.90;99.90;;;;;;6220027;23;20031;-82
2022/01/10 20:44:10;;;;;;;69.25;38.78;;;1.90;99.90;;;;;;6219914;23;20475;-82
2022/01/10 20:46:36;;;;;;;64.35;39.00;;;1.90;99.90;;;;;;6220056;23;20040;-81
2022/01/10 20:49:02;;;;;;;70.65;39.80;;;1.80;99.90;;;;;;6219949;23;20020;-81
2022/01/10 20:51:29;;;;;;;71.03;40.08;;;1.80;99.90;;;;;;6219875;23;20022;-81
2022/01/10 20:53:56;;;;;;;66.75;38.30;;;1.70;99.90;;;;;;6220110;23;20383;-84
2022/01/10 20:56:23;;;;;;;62.47;36.17;;;1.70;99.90;;;;;;6219837;23;20016;-78
2022/01/10 20:58:49;;;;;;;67.05;37.95;;;1.70;99.90;;;;;;6220041;23;20087;-79
2022/01/10 21:01:16;;;;;;;71.25;37.83;;;1.60;99.90;;;;;;6246655;23;20533;-78
2022/01/10 21:03:43;;;;;;;61.95;36.85;;;1.60;99.90;;;;;;6219749;23;20099;-79
2022/01/10 21:06:12;;;;;;;81.20;38.05;;;1.60;99.90;;;;;;6220166;23;20023;-79
2022/01/10 21:08:38;;;;;;;64.63;36.33;;;1.50;99.90;;;;;;6219813;23;20073;-79
2022/01/10 21:11:04;;;;;;;81.03;37.63;;;1.50;99.90;;;;;;6219862;23;20020;-79
2022/01/10 21:13:30;;;;;;;77.80;38.80;;;1.40;99.90;;;;;;6219674;23;20098;-79
2022/01/10 21:15:56;;;;;;;76.13;36.15;;;1.40;99.90;;;;;;6219644;23;20435;-79
2022/01/10 21:18:22;;;;;;;85.13;34.88;;;1.30;99.90;;;;;;6219707;23;20073;-78
2022/01/10 21:20:51;;;;;;;88.53;36.67;;;1.20;99.90;;;;;;6219669;23;20020;-78
2022/01/10 21:23:18;;;;;;;98.75;35.58;;;1.20;99.90;;;;;;6219703;23;20016;-78
2022/01/10 21:25:45;;;;;;;60.13;34.33;;;1.20;99.90;;;;;;6219780;23;20023;-78
2022/01/10 21:28:16;;;;;;;48.10;29.55;;;1.10;99.90;;;;;;6246327;23;20517;-78
2022/01/10 21:30:42;;;;;;;67.82;35.13;;;1.10;99.90;;;;;;6219616;23;20066;-78
2022/01/10 21:33:08;;;;;;;72.25;34.15;;;1.10;99.90;;;;;;6219524;23;20336;-78
2022/01/10 21:35:34;;;;;;;58.55;31.67;;;1.00;99.90;;;;;;6219551;23;20344;-78
2022/01/10 21:38:00;;;;;;;52.75;33.58;;;1.10;99.90;;;;;;6219341;23;20024;-78
2022/01/10 21:40:26;;;;;;;62.00;34.33;;;1.00;99.90;;;;;;6219390;23;20016;-78
2022/01/10 21:42:53;;;;;;;55.88;33.72;;;1.00;99.90;;;;;;6219566;23;20012;-77
2022/01/10 21:45:19;;;;;;;77.80;34.67;;;1.00;99.90;;;;;;6219522;23;20028;-78
2022/01/10 21:47:45;;;;;;;67.32;34.72;;;1.00;99.90;;;;;;6219526;23;20045;-78
2022/01/10 21:50:12;;;;;;;70.15;35.22;;;1.00;99.90;;;;;;6219571;23;20020;-78
2022/01/10 21:52:39;;;;;;;56.28;34.67;;;1.00;99.90;;;;;;6246590;23;20135;-78
2022/01/10 21:55:07;;;;;;;61.45;33.17;;;0.90;99.90;;;;;;6219564;23;20016;-78
2022/01/10 21:57:33;;;;;;;64.13;33.25;;;0.90;99.90;;;;;;6219393;23;20012;-78
2022/01/10 21:59:59;;;;;;;71.20;34.42;;;0.90;99.90;;;;;;6219474;23;20074;-77
2022/01/10 22:02:24;;;;;;;84.15;36.90;;;0.90;99.90;;;;;;6219454;23;20019;-78
2022/01/10 22:04:50;;;;;;;78.07;36.72;;;0.90;99.90;;;;;;6246577;23;20016;-78
2022/01/10 22:07:16;;;;;;;57.45;33.22;;;0.80;99.90;;;;;;6246579;23;20325;-78
2022/01/10 22:09:41;;;;;;;79.97;35.47;;;0.80;99.90;;;;;;6219487;23;20125;-78
2022/01/10 22:12:08;;;;;;;56.28;32.08;;;0.80;99.90;;;;;;6246160;23;20525;-78
2022/01/10 22:14:33;;;;;;;64.35;33.65;;;0.80;99.90;;;;;;6220074;23;20020;-78
2022/01/10 22:16:59;;;;;;;62.55;33.75;;;0.80;99.90;;;;;;6246494;23;20018;-82
2022/01/10 22:19:24;;;;;;;64.07;31.45;;;0.80;99.90;;;;;;6219352;23;20020;-80
2022/01/10 22:21:51;;;;;;;73.15;34.40;;;0.80;99.90;;;;;;6219401;23;20058;-81
2022/01/10 22:24:16;;;;;;;67.53;34.55;;;0.80;99.90;;;;;;6219484;23;20095;-82
2022/01/10 22:26:42;;;;;;;62.03;33.20;;;0.70;99.90;;;;;;6219255;23;20039;-82
2022/01/10 22:29:08;;;;;;;82.30;32.00;;;0.70;99.90;;;;;;6219300;23;20043;-82
2022/01/10 22:31:35;;;;;;;67.35;33.85;;;0.70;99.90;;;;;;6219315;23;20016;-81
2022/01/10 22:34:01;;;;;;;60.78;31.27;;;0.70;99.90;;;;;;6219244;23;20042;-82
2022/01/10 22:36:26;;;;;;;62.63;31.98;;;0.70;99.90;;;;;;6219041;23;20056;-86
2022/01/10 22:38:52;;;;;;;72.10;33.45;;;0.70;99.90;;;;;;6219347;23;20024;-87
2022/01/10 22:41:18;;;;;;;56.30;32.88;;;0.70;99.90;;;;;;6219657;23;20012;-86
2022/01/10 22:43:44;;;;;;;72.90;34.63;;;0.70;99.90;;;;;;6219313;23;20023;-87
2022/01/10 22:46:10;;;;;;;63.85;32.20;;;0.70;99.90;;;;;;6219259;23;20015;-87
2022/01/10 22:48:36;;;;;;;65.57;34.13;;;0.70;99.90;;;;;;6219246;23;20020;-85
2022/01/10 22:51:04;;;;;;;62.55;31.50;;;0.70;99.90;;;;;;6219973;23;20023;-85
2022/01/10 22:53:30;;;;;;;65.07;30.52;;;0.70;99.90;;;;;;6247958;23;20065;-86
2022/01/10 22:55:56;;;;;;;59.38;31.95;;;0.70;99.90;;;;;;6221012;23;20090;-85
2022/01/10 22:58:21;;;;;;;58.85;31.48;;;0.70;99.90;;;;;;6220973;23;20440;-85
2022/01/10 23:00:47;;;;;;;71.05;32.97;;;0.60;99.90;;;;;;6221083;23;20027;-79
2022/01/10 23:03:13;;;;;;;62.47;31.67;;;0.60;99.90;;;;;;6247766;23;20023;-88
2022/01/10 23:05:40;;;;;;;62.05;29.45;;;0.60;99.90;;;;;;6248128;23;20087;-84
2022/01/10 23:08:06;;;;;;;69.22;32.60;;;0.60;99.90;;;;;;6220913;23;20016;-85
2022/01/10 23:10:32;;;;;;;83.50;32.85;;;0.60;99.90;;;;;;6220808;23;20020;-85
2022/01/10 23:12:57;;;;;;;73.28;31.17;;;0.60;99.90;;;;;;6247624;23;20099;-84
2022/01/10 23:15:23;;;;;;;72.50;30.38;;;0.50;99.90;;;;;;6220860;23;20051;-85
2022/01/10 23:17:49;;;;;;;64.80;28.10;;;0.50;99.90;;;;;;6220927;23;20020;-85
2022/01/10 23:20:16;;;;;;;76.95;34.50;;;0.50;99.90;;;;;;6247973;23;20027;-85
2022/01/10 23:22:43;;;;;;;86.60;33.30;;;0.50;99.90;;;;;;6220754;23;20344;-85
2022/01/10 23:25:10;;;;;;;70.72;32.47;;;0.50;99.90;;;;;;6220658;23;20020;-86
2022/01/10 23:27:36;;;;;;;65.63;31.60;;;0.50;99.90;;;;;;6247797;23;20016;-86
2022/01/10 23:30:05;;;;;;;73.40;34.22;;;0.50;99.90;;;;;;6220732;23;20352;-86
2022/01/10 23:32:30;;;;;;;68.35;32.50;;;0.50;99.90;;;;;;6220520;23;20023;-85
2022/01/10 23:34:56;;;;;;;65.40;32.97;;;0.50;99.90;;;;;;6220666;23;20051;-84
2022/01/10 23:37:21;;;;;;;70.00;32.10;;;0.50;99.90;;;;;;6247255;23;20016;-84
2022/01/10 23:39:47;;;;;;;66.70;30.88;;;0.50;99.90;;;;;;6220654;23;20316;-84
2022/01/10 23:42:13;;;;;;;61.28;30.67;;;0.50;99.90;;;;;;6220515;23;20444;-84
2022/01/10 23:44:39;;;;;;;62.15;31.60;;;0.50;99.90;;;;;;6220596;23;20020;-84
2022/01/10 23:47:07;;;;;;;65.47;33.55;;;0.50;99.90;;;;;;6247370;23;20530;-84
2022/01/10 23:49:32;;;;;;;62.65;30.40;;;0.50;99.90;;;;;;6220543;23;20051;-83
2022/01/10 23:52:00;;;;;;;52.92;28.02;;;0.50;99.90;;;;;;6220435;23;20020;-84
2022/01/10 23:54:25;;;;;;;72.05;31.42;;;0.50;99.90;;;;;;6220350;23;20448;-83
2022/01/10 23:56:51;;;;;;;67.65;31.55;;;0.50;99.90;;;;;;6247631;23;20023;-84
2022/01/10 23:59:17;;;;;;;59.22;30.75;;;0.50;99.90;;;;;;6220390;23;20020;-85
